sensor_id;sensor_type;location;lat;lon;timestamp;pressure;altitude;pressure_sealevel;temperature;humidity
3968;BME280;9221;42.646;23.380;2023-06-19T00:01:17;94582.19;;;20.11;70.72
3968;BME280;9221;42.646;23.380;2023-06-19T00:03:43;94651.72;;;20.38;70.86
3968;BME280;9221;42.646;23.380;2023-06-19T00:06:08;94659.78;;;20.38;70.74
3968;BME280;9221;42.646;23.380;2023-06-19T00:08:34;94581.78;;;20.07;70.82
3968;BME280;9221;42.646;23.380;2023-06-19T00:11:00;94633.63;;;20.26;70.41
3968;BME280;9221;42.646;23.380;2023-06-19T00:13:26;94572.72;;;20.02;70.75
3968;BME280;9221;42.646;23.380;2023-06-19T00:15:51;94543.50;;;19.87;70.60
3968;BME280;9221;42.646;23.380;2023-06-19T00:18:16;94570.47;;;19.92;70.49
3968;BME280;9221;42.646;23.380;2023-06-19T00:20:44;94580.97;;;19.93;70.96
3968;BME280;9221;42.646;23.380;2023-06-19T00:23:11;94635.72;;;20.11;71.18
3968;BME280;9221;42.646;23.380;2023-06-19T00:25:40;94597.22;;;20.12;70.99
3968;BME280;9221;42.646;23.380;2023-06-19T00:28:06;94608.72;;;20.19;71.00
3968;BME280;9221;42.646;23.380;2023-06-19T00:30:37;94542.91;;;19.78;70.59
3968;BME280;9221;42.646;23.380;2023-06-19T00:33:02;94612.03;;;20.15;70.72
3968;BME280;9221;42.646;23.380;2023-06-19T00:35:28;94606.88;;;20.13;71.03
3968;BME280;9221;42.646;23.380;2023-06-19T00:37:53;94640.25;;;20.10;71.03
3968;BME280;9221;42.646;23.380;2023-06-19T00:40:30;94603.63;;;19.98;71.21
3968;BME280;9221;42.646;23.380;2023-06-19T00:42:55;94600.94;;;19.84;71.40
3968;BME280;9221;42.646;23.380;2023-06-19T00:45:21;94591.69;;;19.80;71.37
3968;BME280;9221;42.646;23.380;2023-06-19T00:47:46;94577.91;;;19.56;71.52
3968;BME280;9221;42.646;23.380;2023-06-19T00:50:12;94541.88;;;19.45;71.55
3968;BME280;9221;42.646;23.380;2023-06-19T00:52:37;94588.38;;;19.78;71.29
3968;BME280;9221;42.646;23.380;2023-06-19T00:55:04;94532.84;;;19.40;71.70
3968;BME280;9221;42.646;23.380;2023-06-19T00:57:30;94585.09;;;19.76;71.70
3968;BME280;9221;42.646;23.380;2023-06-19T00:59:57;94618.44;;;19.80;71.65
3968;BME280;9221;42.646;23.380;2023-06-19T01:02:22;94558.97;;;19.65;71.14
3968;BME280;9221;42.646;23.380;2023-06-19T01:04:49;94589.66;;;19.82;71.38
3968;BME280;9221;42.646;23.380;2023-06-19T01:07:19;94532.44;;;19.43;71.71
3968;BME280;9221;42.646;23.380;2023-06-19T01:09:52;94587.97;;;19.74;71.71
3968;BME280;9221;42.646;23.380;2023-06-19T01:12:23;94514.94;;;19.34;72.28
3968;BME280;9221;42.646;23.380;2023-06-19T01:14:57;94564.91;;;19.60;73.30
3968;BME280;9221;42.646;23.380;2023-06-19T01:17:26;94466.41;;;18.90;73.16
3968;BME280;9221;42.646;23.380;2023-06-19T01:19:52;94598.28;;;19.51;73.86
3968;BME280;9221;42.646;23.380;2023-06-19T01:22:30;94530.38;;;19.11;74.77
3968;BME280;9221;42.646;23.380;2023-06-19T01:24:56;94522.13;;;19.13;74.93
3968;BME280;9221;42.646;23.380;2023-06-19T01:27:26;94665.72;;;19.39;74.78
3968;BME280;9221;42.646;23.380;2023-06-19T01:29:56;94585.09;;;19.22;75.15
3968;BME280;9221;42.646;23.380;2023-06-19T01:35:00;94569.00;;;18.96;75.91
3968;BME280;9221;42.646;23.380;2023-06-19T01:37:28;94554.44;;;18.43;76.39
3968;BME280;9221;42.646;23.380;2023-06-19T01:39:57;94588.22;;;18.71;76.98
3968;BME280;9221;42.646;23.380;2023-06-19T01:42:25;94579.19;;;18.72;77.22
3968;BME280;9221;42.646;23.380;2023-06-19T01:44:51;94543.28;;;18.33;78.01
3968;BME280;9221;42.646;23.380;2023-06-19T01:47:16;94631.72;;;18.51;79.42
3968;BME280;9221;42.646;23.380;2023-06-19T01:49:46;94440.44;;;17.12;80.49
3968;BME280;9221;42.646;23.380;2023-06-19T01:52:12;94618.63;;;17.93;81.52
3968;BME280;9221;42.646;23.380;2023-06-19T01:54:37;94594.34;;;17.81;83.34
3968;BME280;9221;42.646;23.380;2023-06-19T01:57:03;94593.72;;;17.57;83.52
3968;BME280;9221;42.646;23.380;2023-06-19T01:59:28;94580.41;;;17.57;83.75
3968;BME280;9221;42.646;23.380;2023-06-19T02:01:54;94615.06;;;17.57;84.30
3968;BME280;9221;42.646;23.380;2023-06-19T02:04:19;94579.38;;;17.58;84.63
3968;BME280;9221;42.646;23.380;2023-06-19T02:06:45;94534.66;;;17.25;84.70
3968;BME280;9221;42.646;23.380;2023-06-19T02:09:10;94541.84;;;17.32;85.14
3968;BME280;9221;42.646;23.380;2023-06-19T02:11:36;94590.00;;;17.52;85.98
3968;BME280;9221;42.646;23.380;2023-06-19T02:14:01;94551.03;;;17.22;85.95
3968;BME280;9221;42.646;23.380;2023-06-19T02:16:27;94596.94;;;17.46;86.37
3968;BME280;9221;42.646;23.380;2023-06-19T02:18:52;94530.47;;;16.95;87.11
3968;BME280;9221;42.646;23.380;2023-06-19T02:21:17;94593.16;;;17.34;86.92
3968;BME280;9221;42.646;23.380;2023-06-19T02:23:43;94605.97;;;17.23;86.78
3968;BME280;9221;42.646;23.380;2023-06-19T02:26:08;94654.19;;;17.50;85.97
3968;BME280;9221;42.646;23.380;2023-06-19T02:28:33;94593.91;;;17.28;86.03
3968;BME280;9221;42.646;23.380;2023-06-19T02:30:59;94653.59;;;17.55;86.81
3968;BME280;9221;42.646;23.380;2023-06-19T02:33:24;94551.38;;;16.91;88.11
3968;BME280;9221;42.646;23.380;2023-06-19T02:35:49;94571.06;;;16.60;89.74
3968;BME280;9221;42.646;23.380;2023-06-19T02:38:15;94652.78;;;16.74;91.16
3968;BME280;9221;42.646;23.380;2023-06-19T02:40:40;94549.16;;;16.21;91.73
3968;BME280;9221;42.646;23.380;2023-06-19T02:43:06;94505.22;;;15.96;91.75
3968;BME280;9221;42.646;23.380;2023-06-19T02:45:31;94566.66;;;16.31;91.83
3968;BME280;9221;42.646;23.380;2023-06-19T02:47:56;94631.75;;;16.65;91.07
3968;BME280;9221;42.646;23.380;2023-06-19T02:50:22;94572.09;;;16.22;91.44
3968;BME280;9221;42.646;23.380;2023-06-19T02:52:47;94632.56;;;16.80;91.37
3968;BME280;9221;42.646;23.380;2023-06-19T02:55:13;94629.50;;;16.83;90.88
3968;BME280;9221;42.646;23.380;2023-06-19T02:57:38;94638.50;;;16.82;91.15
3968;BME280;9221;42.646;23.380;2023-06-19T03:00:04;94651.94;;;16.74;90.79
3968;BME280;9221;42.646;23.380;2023-06-19T03:02:34;94647.09;;;16.63;91.47
3968;BME280;9221;42.646;23.380;2023-06-19T03:05:00;94658.63;;;16.85;91.03
3968;BME280;9221;42.646;23.380;2023-06-19T03:07:25;94654.69;;;16.66;91.42
3968;BME280;9221;42.646;23.380;2023-06-19T03:09:54;94579.47;;;16.42;91.25
3968;BME280;9221;42.646;23.380;2023-06-19T03:12:19;94530.97;;;16.10;91.17
3968;BME280;9221;42.646;23.380;2023-06-19T03:14:45;94624.78;;;16.64;91.77
3968;BME280;9221;42.646;23.380;2023-06-19T03:17:10;94626.81;;;16.62;92.63
3968;BME280;9221;42.646;23.380;2023-06-19T03:19:35;94633.94;;;16.76;93.00
3968;BME280;9221;42.646;23.380;2023-06-19T03:22:01;94620.19;;;16.57;93.06
3968;BME280;9221;42.646;23.380;2023-06-19T03:24:28;94579.59;;;16.19;93.33
3968;BME280;9221;42.646;23.380;2023-06-19T03:26:53;94628.19;;;16.42;93.75
3968;BME280;9221;42.646;23.380;2023-06-19T03:29:19;94557.75;;;16.08;93.03
3968;BME280;9221;42.646;23.380;2023-06-19T03:31:44;94585.31;;;16.01;92.75
3968;BME280;9221;42.646;23.380;2023-06-19T03:34:09;94623.16;;;16.33;93.08
3968;BME280;9221;42.646;23.380;2023-06-19T03:36:35;94563.19;;;15.85;93.41
3968;BME280;9221;42.646;23.380;2023-06-19T03:39:00;94548.44;;;15.83;93.53
3968;BME280;9221;42.646;23.380;2023-06-19T03:41:26;94501.00;;;15.56;93.33
3968;BME280;9221;42.646;23.380;2023-06-19T03:43:51;94627.91;;;16.52;93.82
3968;BME280;9221;42.646;23.380;2023-06-19T03:46:16;94627.00;;;16.45;93.99
3968;BME280;9221;42.646;23.380;2023-06-19T03:48:42;94670.16;;;16.55;94.59
3968;BME280;9221;42.646;23.380;2023-06-19T03:51:07;94571.97;;;16.31;94.41
3968;BME280;9221;42.646;23.380;2023-06-19T03:53:32;94593.38;;;16.22;93.67
3968;BME280;9221;42.646;23.380;2023-06-19T03:55:58;94564.28;;;16.06;93.13
3968;BME280;9221;42.646;23.380;2023-06-19T03:58:23;94617.66;;;16.49;93.03
3968;BME280;9221;42.646;23.380;2023-06-19T04:00:49;94625.16;;;16.61;92.80
3968;BME280;9221;42.646;23.380;2023-06-19T04:03:14;94640.38;;;16.67;91.82
3968;BME280;9221;42.646;23.380;2023-06-19T04:05:39;94560.25;;;16.62;91.64
3968;BME280;9221;42.646;23.380;2023-06-19T04:08:07;94435.19;;;16.10;90.46
3968;BME280;9221;42.646;23.380;2023-06-19T04:10:32;94559.66;;;17.03;90.73
3968;BME280;9221;42.646;23.380;2023-06-19T04:12:58;94619.66;;;17.42;89.99
3968;BME280;9221;42.646;23.380;2023-06-19T04:15:23;94584.28;;;17.27;90.01
3968;BME280;9221;42.646;23.380;2023-06-19T04:17:49;94557.97;;;17.23;89.54
3968;BME280;9221;42.646;23.380;2023-06-19T04:20:14;94563.56;;;17.29;89.83
3968;BME280;9221;42.646;23.380;2023-06-19T04:22:40;94552.84;;;17.22;89.92
3968;BME280;9221;42.646;23.380;2023-06-19T04:25:07;94621.78;;;17.75;90.12
3968;BME280;9221;42.646;23.380;2023-06-19T04:27:33;94663.09;;;17.86;91.05
3968;BME280;9221;42.646;23.380;2023-06-19T04:29:58;94604.56;;;17.77;91.12
3968;BME280;9221;42.646;23.380;2023-06-19T04:32:23;94567.41;;;17.48;89.70
3968;BME280;9221;42.646;23.380;2023-06-19T04:34:49;94629.97;;;17.95;89.21
3968;BME280;9221;42.646;23.380;2023-06-19T04:37:14;94634.75;;;18.06;88.92
3968;BME280;9221;42.646;23.380;2023-06-19T04:39:46;94626.75;;;18.41;88.50
3968;BME280;9221;42.646;23.380;2023-06-19T04:42:16;94614.69;;;18.66;86.25
3968;BME280;9221;42.646;23.380;2023-06-19T04:44:48;94573.56;;;18.53;81.73
3968;BME280;9221;42.646;23.380;2023-06-19T04:47:19;94603.16;;;19.00;79.61
3968;BME280;9221;42.646;23.380;2023-06-19T04:49:45;94654.63;;;19.36;78.32
3968;BME280;9221;42.646;23.380;2023-06-19T04:52:11;94596.81;;;19.35;76.90
3968;BME280;9221;42.646;23.380;2023-06-19T04:54:37;94565.94;;;19.25;76.67
3968;BME280;9221;42.646;23.380;2023-06-19T04:57:02;94569.06;;;19.36;78.46
3968;BME280;9221;42.646;23.380;2023-06-19T04:59:28;94599.09;;;19.78;76.38
3968;BME280;9221;42.646;23.380;2023-06-19T05:01:58;94606.50;;;19.96;76.65
3968;BME280;9221;42.646;23.380;2023-06-19T05:04:25;94663.09;;;20.26;78.36
3968;BME280;9221;42.646;23.380;2023-06-19T05:06:50;94563.25;;;19.92;79.20
3968;BME280;9221;42.646;23.380;2023-06-19T05:09:16;94606.84;;;20.26;78.82
3968;BME280;9221;42.646;23.380;2023-06-19T05:11:41;94652.97;;;20.42;78.33
3968;BME280;9221;42.646;23.380;2023-06-19T05:14:07;94639.78;;;20.40;76.85
3968;BME280;9221;42.646;23.380;2023-06-19T05:16:35;94612.38;;;20.45;74.61
3968;BME280;9221;42.646;23.380;2023-06-19T05:19:01;94592.81;;;20.38;73.13
3968;BME280;9221;42.646;23.380;2023-06-19T05:21:26;94620.09;;;20.67;72.07
3968;BME280;9221;42.646;23.380;2023-06-19T05:23:51;94600.81;;;20.51;70.96
3968;BME280;9221;42.646;23.380;2023-06-19T05:26:18;94600.25;;;20.36;70.64
3968;BME280;9221;42.646;23.380;2023-06-19T05:28:44;94612.50;;;20.63;69.98
3968;BME280;9221;42.646;23.380;2023-06-19T05:31:09;94636.41;;;20.58;69.38
3968;BME280;9221;42.646;23.380;2023-06-19T05:33:35;94589.25;;;20.57;69.09
3968;BME280;9221;42.646;23.380;2023-06-19T05:36:00;94614.59;;;20.68;68.58
3968;BME280;9221;42.646;23.380;2023-06-19T05:38:26;94637.25;;;20.72;68.22
3968;BME280;9221;42.646;23.380;2023-06-19T05:40:53;94667.94;;;20.83;67.99
3968;BME280;9221;42.646;23.380;2023-06-19T05:43:18;94654.34;;;20.71;67.52
3968;BME280;9221;42.646;23.380;2023-06-19T05:45:44;94663.16;;;20.85;67.88
3968;BME280;9221;42.646;23.380;2023-06-19T05:48:09;94642.13;;;20.89;67.60
3968;BME280;9221;42.646;23.380;2023-06-19T05:50:35;94539.06;;;20.33;66.72
3968;BME280;9221;42.646;23.380;2023-06-19T05:53:00;94609.19;;;20.75;66.81
3968;BME280;9221;42.646;23.380;2023-06-19T05:55:26;94627.28;;;20.86;66.63
3968;BME280;9221;42.646;23.380;2023-06-19T05:57:53;94670.38;;;20.91;66.80
3968;BME280;9221;42.646;23.380;2023-06-19T06:00:18;94643.72;;;20.96;66.86
3968;BME280;9221;42.646;23.380;2023-06-19T06:02:44;94648.06;;;20.98;66.25
3968;BME280;9221;42.646;23.380;2023-06-19T06:05:09;94666.81;;;21.04;66.99
3968;BME280;9221;42.646;23.380;2023-06-19T06:07:35;94606.88;;;20.85;67.07
3968;BME280;9221;42.646;23.380;2023-06-19T06:10:01;94593.66;;;20.90;66.52
3968;BME280;9221;42.646;23.380;2023-06-19T06:12:26;94642.19;;;21.14;66.28
3968;BME280;9221;42.646;23.380;2023-06-19T06:14:52;94578.00;;;20.87;65.31
3968;BME280;9221;42.646;23.380;2023-06-19T06:17:17;94658.41;;;21.33;65.61
3968;BME280;9221;42.646;23.380;2023-06-19T06:19:42;94598.94;;;21.04;66.26
3968;BME280;9221;42.646;23.380;2023-06-19T06:22:08;94661.16;;;21.58;65.62
3968;BME280;9221;42.646;23.380;2023-06-19T06:24:33;94663.56;;;21.66;65.33
3968;BME280;9221;42.646;23.380;2023-06-19T06:26:59;94609.06;;;21.34;65.22
3968;BME280;9221;42.646;23.380;2023-06-19T06:29:24;94569.47;;;21.04;65.23
3968;BME280;9221;42.646;23.380;2023-06-19T06:31:50;94619.97;;;21.39;65.69
3968;BME280;9221;42.646;23.380;2023-06-19T06:34:18;94606.56;;;21.39;64.93
3968;BME280;9221;42.646;23.380;2023-06-19T06:36:45;94664.28;;;21.80;65.45
3968;BME280;9221;42.646;23.380;2023-06-19T06:39:10;94608.38;;;21.45;65.25
3968;BME280;9221;42.646;23.380;2023-06-19T06:41:36;94666.88;;;21.68;64.15
3968;BME280;9221;42.646;23.380;2023-06-19T06:44:01;94672.03;;;21.70;64.61
3968;BME280;9221;42.646;23.380;2023-06-19T06:46:27;94620.31;;;21.49;63.73
3968;BME280;9221;42.646;23.380;2023-06-19T06:48:53;94613.75;;;21.45;64.39
3968;BME280;9221;42.646;23.380;2023-06-19T06:51:18;94689.94;;;21.76;64.30
3968;BME280;9221;42.646;23.380;2023-06-19T06:53:43;94619.88;;;21.52;64.56
3968;BME280;9221;42.646;23.380;2023-06-19T06:56:09;94669.63;;;21.87;64.83
3968;BME280;9221;42.646;23.380;2023-06-19T06:58:34;94649.84;;;21.81;65.21
3968;BME280;9221;42.646;23.380;2023-06-19T07:01:00;94668.66;;;22.06;64.61
3968;BME280;9221;42.646;23.380;2023-06-19T07:03:25;94606.56;;;21.71;64.04
3968;BME280;9221;42.646;23.380;2023-06-19T07:05:50;94608.53;;;21.82;62.48
3968;BME280;9221;42.646;23.380;2023-06-19T07:08:16;94610.59;;;21.80;62.64
3968;BME280;9221;42.646;23.380;2023-06-19T07:10:41;94673.41;;;22.29;62.09
3968;BME280;9221;42.646;23.380;2023-06-19T07:13:07;94668.03;;;22.29;61.81
3968;BME280;9221;42.646;23.380;2023-06-19T07:15:32;94645.72;;;22.04;61.05
3968;BME280;9221;42.646;23.380;2023-06-19T07:17:57;94701.06;;;22.37;61.95
3968;BME280;9221;42.646;23.380;2023-06-19T07:20:23;94539.38;;;21.52;61.18
3968;BME280;9221;42.646;23.380;2023-06-19T07:22:51;94678.06;;;22.59;61.70
3968;BME280;9221;42.646;23.380;2023-06-19T07:25:17;94648.66;;;22.64;60.91
3968;BME280;9221;42.646;23.380;2023-06-19T07:27:42;94666.22;;;22.86;60.23
3968;BME280;9221;42.646;23.380;2023-06-19T07:30:08;94684.66;;;23.01;60.25
3968;BME280;9221;42.646;23.380;2023-06-19T07:32:34;94579.09;;;22.38;58.99
3968;BME280;9221;42.646;23.380;2023-06-19T07:34:59;94658.19;;;22.97;59.16
3968;BME280;9221;42.646;23.380;2023-06-19T07:37:25;94627.00;;;22.78;58.32
3968;BME280;9221;42.646;23.380;2023-06-19T07:39:51;94629.53;;;22.73;58.89
3968;BME280;9221;42.646;23.380;2023-06-19T07:42:18;94703.50;;;23.19;58.22
3968;BME280;9221;42.646;23.380;2023-06-19T07:44:44;94651.72;;;22.87;57.30
3968;BME280;9221;42.646;23.380;2023-06-19T07:47:10;94664.63;;;23.15;57.37
3968;BME280;9221;42.646;23.380;2023-06-19T07:49:36;94633.56;;;23.01;57.24
3968;BME280;9221;42.646;23.380;2023-06-19T07:52:02;94681.34;;;23.36;57.53
3968;BME280;9221;42.646;23.380;2023-06-19T07:54:28;94681.16;;;23.49;57.36
3968;BME280;9221;42.646;23.380;2023-06-19T07:56:53;94633.22;;;23.27;56.89
3968;BME280;9221;42.646;23.380;2023-06-19T07:59:19;94668.31;;;23.51;56.71
3968;BME280;9221;42.646;23.380;2023-06-19T08:01:45;94624.09;;;23.10;56.93
3968;BME280;9221;42.646;23.380;2023-06-19T08:04:10;94670.56;;;23.36;57.45
3968;BME280;9221;42.646;23.380;2023-06-19T08:06:35;94618.72;;;23.28;56.83
3968;BME280;9221;42.646;23.380;2023-06-19T08:09:01;94682.88;;;23.74;56.75
3968;BME280;9221;42.646;23.380;2023-06-19T08:11:27;94686.41;;;23.86;56.74
3968;BME280;9221;42.646;23.380;2023-06-19T08:13:52;94679.84;;;23.82;55.01
3968;BME280;9221;42.646;23.380;2023-06-19T08:16:18;94617.03;;;23.46;55.31
3968;BME280;9221;42.646;23.380;2023-06-19T08:18:44;94697.66;;;23.83;55.57
3968;BME280;9221;42.646;23.380;2023-06-19T08:21:10;94624.09;;;23.71;54.84
3968;BME280;9221;42.646;23.380;2023-06-19T08:23:35;94620.88;;;23.92;54.25
3968;BME280;9221;42.646;23.380;2023-06-19T08:26:01;94697.78;;;24.30;52.54
3968;BME280;9221;42.646;23.380;2023-06-19T08:28:27;94689.56;;;24.49;50.79
3968;BME280;9221;42.646;23.380;2023-06-19T08:30:52;94707.75;;;24.65;49.80
3968;BME280;9221;42.646;23.380;2023-06-19T08:33:18;94675.94;;;24.91;50.74
3968;BME280;9221;42.646;23.380;2023-06-19T08:35:43;94675.88;;;25.15;49.14
3968;BME280;9221;42.646;23.380;2023-06-19T08:38:09;94684.03;;;25.44;48.00
3968;BME280;9221;42.646;23.380;2023-06-19T08:40:35;94696.84;;;25.65;47.39
3968;BME280;9221;42.646;23.380;2023-06-19T08:43:00;94629.06;;;25.50;47.35
3968;BME280;9221;42.646;23.380;2023-06-19T08:45:29;94614.66;;;25.44;46.81
3968;BME280;9221;42.646;23.380;2023-06-19T08:48:01;94680.41;;;26.13;45.99
3968;BME280;9221;42.646;23.380;2023-06-19T08:50:29;94628.78;;;25.97;44.60
3968;BME280;9221;42.646;23.380;2023-06-19T08:52:55;94679.81;;;26.28;42.95
3968;BME280;9221;42.646;23.380;2023-06-19T08:55:21;94700.38;;;26.46;43.48
3968;BME280;9221;42.646;23.380;2023-06-19T08:57:48;94672.50;;;26.79;42.55
3968;BME280;9221;42.646;23.380;2023-06-19T09:00:23;94587.50;;;26.02;43.56
3968;BME280;9221;42.646;23.380;2023-06-19T09:02:50;94678.72;;;26.80;43.27
3968;BME280;9221;42.646;23.380;2023-06-19T09:05:17;94544.75;;;25.99;43.31
3968;BME280;9221;42.646;23.380;2023-06-19T09:07:44;94664.22;;;26.91;43.44
3968;BME280;9221;42.646;23.380;2023-06-19T09:10:16;94709.00;;;27.21;42.33
3968;BME280;9221;42.646;23.380;2023-06-19T09:12:43;94711.78;;;27.26;41.22
3968;BME280;9221;42.646;23.380;2023-06-19T09:15:15;94621.06;;;27.01;42.28
3968;BME280;9221;42.646;23.380;2023-06-19T09:17:41;94658.34;;;27.39;41.62
3968;BME280;9221;42.646;23.380;2023-06-19T09:20:06;94656.50;;;27.22;40.93
3968;BME280;9221;42.646;23.380;2023-06-19T09:22:32;94605.66;;;27.29;41.14
3968;BME280;9221;42.646;23.380;2023-06-19T09:25:01;94681.41;;;27.68;40.81
3968;BME280;9221;42.646;23.380;2023-06-19T09:27:32;94706.81;;;27.62;40.49
3968;BME280;9221;42.646;23.380;2023-06-19T09:29:58;94704.75;;;27.75;40.32
3968;BME280;9221;42.646;23.380;2023-06-19T09:57:10;94614.88;;;29.06;36.06
3968;BME280;9221;42.646;23.380;2023-06-19T09:59:37;94650.94;;;29.01;35.64
3968;BME280;9221;42.646;23.380;2023-06-19T10:02:04;94609.53;;;28.31;35.75
3968;BME280;9221;42.646;23.380;2023-06-19T10:04:51;94558.50;;;28.23;35.85
3968;BME280;9221;42.646;23.380;2023-06-19T10:07:22;94654.81;;;29.21;36.20
3968;BME280;9221;42.646;23.380;2023-06-19T10:10:23;94643.56;;;29.60;36.60
3968;BME280;9221;42.646;23.380;2023-06-19T10:12:49;94650.06;;;29.59;33.48
3968;BME280;9221;42.646;23.380;2023-06-19T10:20:37;94631.59;;;29.71;33.69
3968;BME280;9221;42.646;23.380;2023-06-19T10:23:23;94641.41;;;29.78;33.09
3968;BME280;9221;42.646;23.380;2023-06-19T10:25:56;94589.19;;;29.45;33.56
3968;BME280;9221;42.646;23.380;2023-06-19T10:28:25;94580.50;;;29.63;28.98
3968;BME280;9221;42.646;23.380;2023-06-19T10:33:21;94624.03;;;30.30;30.65
3968;BME280;9221;42.646;23.380;2023-06-19T10:35:47;94669.75;;;30.38;30.97
3968;BME280;9221;42.646;23.380;2023-06-19T10:38:15;94631.13;;;30.16;32.27
3968;BME280;9221;42.646;23.380;2023-06-19T10:40:41;94627.06;;;30.44;32.08
3968;BME280;9221;42.646;23.380;2023-06-19T10:43:06;94528.03;;;30.09;31.90
3968;BME280;9221;42.646;23.380;2023-06-19T10:45:32;94532.13;;;30.12;31.85
3968;BME280;9221;42.646;23.380;2023-06-19T10:48:01;94627.56;;;30.57;33.08
3968;BME280;9221;42.646;23.380;2023-06-19T10:50:27;94642.00;;;30.47;32.95
3968;BME280;9221;42.646;23.380;2023-06-19T10:52:53;94627.81;;;30.55;31.93
3968;BME280;9221;42.646;23.380;2023-06-19T10:55:20;94670.00;;;30.73;31.84
3968;BME280;9221;42.646;23.380;2023-06-19T10:57:47;94623.44;;;30.80;31.39
3968;BME280;9221;42.646;23.380;2023-06-19T11:02:49;94644.19;;;30.45;32.89
3968;BME280;9221;42.646;23.380;2023-06-19T11:05:14;94573.94;;;30.52;31.80
3968;BME280;9221;42.646;23.380;2023-06-19T11:07:39;94625.47;;;31.24;31.68
3968;BME280;9221;42.646;23.380;2023-06-19T11:10:05;94608.13;;;31.49;31.48
3968;BME280;9221;42.646;23.380;2023-06-19T11:12:32;94611.94;;;30.93;33.01
3968;BME280;9221;42.646;23.380;2023-06-19T11:14:59;94617.50;;;30.31;33.59
3968;BME280;9221;42.646;23.380;2023-06-19T11:17:24;94558.50;;;29.60;33.71
3968;BME280;9221;42.646;23.380;2023-06-19T11:19:50;94609.88;;;29.82;34.16
3968;BME280;9221;42.646;23.380;2023-06-19T11:22:16;94618.00;;;29.46;35.93
3968;BME280;9221;42.646;23.380;2023-06-19T11:24:45;94608.78;;;29.67;36.08
3968;BME280;9221;42.646;23.380;2023-06-19T11:27:21;94514.72;;;29.56;35.60
3968;BME280;9221;42.646;23.380;2023-06-19T11:29:57;94594.69;;;29.86;36.01
3968;BME280;9221;42.646;23.380;2023-06-19T11:32:29;94605.53;;;29.65;36.73
3968;BME280;9221;42.646;23.380;2023-06-19T11:34:56;94561.38;;;29.17;36.96
3968;BME280;9221;42.646;23.380;2023-06-19T11:37:21;94607.88;;;29.26;38.12
3968;BME280;9221;42.646;23.380;2023-06-19T11:39:49;94601.03;;;29.08;38.29
3968;BME280;9221;42.646;23.380;2023-06-19T11:42:15;94576.84;;;29.06;38.39
3968;BME280;9221;42.646;23.380;2023-06-19T11:45:02;94554.59;;;29.14;38.16
3968;BME280;9221;42.646;23.380;2023-06-19T11:47:31;94604.44;;;29.71;38.04
3968;BME280;9221;42.646;23.380;2023-06-19T11:49:59;94602.81;;;30.32;36.36
3968;BME280;9221;42.646;23.380;2023-06-19T11:52:25;94569.59;;;30.41;35.65
3968;BME280;9221;42.646;23.380;2023-06-19T11:54:51;94597.09;;;30.49;35.78
3968;BME280;9221;42.646;23.380;2023-06-19T11:57:16;94603.09;;;30.57;36.93
3968;BME280;9221;42.646;23.380;2023-06-19T11:59:42;94592.38;;;30.81;36.79
3968;BME280;9221;42.646;23.380;2023-06-19T12:02:08;94489.69;;;30.11;36.15
3968;BME280;9221;42.646;23.380;2023-06-19T12:04:34;94540.28;;;29.96;37.34
3968;BME280;9221;42.646;23.380;2023-06-19T12:07:00;94533.75;;;29.61;37.75
3968;BME280;9221;42.646;23.380;2023-06-19T12:09:26;94492.94;;;29.15;38.96
3968;BME280;9221;42.646;23.380;2023-06-19T12:11:52;94601.91;;;29.29;40.02
3968;BME280;9221;42.646;23.380;2023-06-19T12:14:18;94567.38;;;29.19;39.62
3968;BME280;9221;42.646;23.380;2023-06-19T12:16:47;94579.13;;;29.45;38.89
3968;BME280;9221;42.646;23.380;2023-06-19T12:19:13;94525.50;;;28.94;39.65
3968;BME280;9221;42.646;23.380;2023-06-19T12:21:38;94575.22;;;29.15;40.47
3968;BME280;9221;42.646;23.380;2023-06-19T12:24:04;94577.06;;;28.89;41.11
3968;BME280;9221;42.646;23.380;2023-06-19T12:26:30;94521.59;;;28.64;40.67
3968;BME280;9221;42.646;23.380;2023-06-19T12:28:56;94597.06;;;29.46;40.52
3968;BME280;9221;42.646;23.380;2023-06-19T12:31:21;94575.09;;;29.94;39.66
3968;BME280;9221;42.646;23.380;2023-06-19T12:33:47;94473.94;;;29.77;38.28
3968;BME280;9221;42.646;23.380;2023-06-19T12:36:14;94529.66;;;30.15;37.45
3968;BME280;9221;42.646;23.380;2023-06-19T12:38:40;94562.00;;;30.32;38.10
3968;BME280;9221;42.646;23.380;2023-06-19T12:41:06;94561.78;;;29.77;38.60
3968;BME280;9221;42.646;23.380;2023-06-19T12:43:32;94511.41;;;29.08;40.00
3968;BME280;9221;42.646;23.380;2023-06-19T12:45:58;94567.72;;;29.48;40.55
3968;BME280;9221;42.646;23.380;2023-06-19T12:48:27;94565.84;;;29.75;39.36
3968;BME280;9221;42.646;23.380;2023-06-19T12:50:52;94568.03;;;30.03;38.34
3968;BME280;9221;42.646;23.380;2023-06-19T12:53:18;94502.19;;;30.17;37.46
3968;BME280;9221;42.646;23.380;2023-06-19T12:55:44;94593.78;;;30.68;36.92
3968;BME280;9221;42.646;23.380;2023-06-19T12:58:10;94517.84;;;30.61;36.39
3968;BME280;9221;42.646;23.380;2023-06-19T13:00:36;94566.56;;;31.33;36.29
3968;BME280;9221;42.646;23.380;2023-06-19T13:03:02;94579.75;;;31.11;35.58
3968;BME280;9221;42.646;23.380;2023-06-19T13:05:27;94556.38;;;31.04;35.92
3968;BME280;9221;42.646;23.380;2023-06-19T13:07:53;94505.88;;;30.57;35.52
3968;BME280;9221;42.646;23.380;2023-06-19T13:10:18;94611.25;;;30.51;36.45
3968;BME280;9221;42.646;23.380;2023-06-19T13:12:44;94559.56;;;30.36;36.76
3968;BME280;9221;42.646;23.380;2023-06-19T13:15:09;94542.47;;;29.99;37.15
3968;BME280;9221;42.646;23.380;2023-06-19T13:17:35;94491.09;;;29.31;37.33
3968;BME280;9221;42.646;23.380;2023-06-19T13:20:01;94555.50;;;29.41;37.60
3968;BME280;9221;42.646;23.380;2023-06-19T13:22:26;94561.91;;;29.03;38.39
3968;BME280;9221;42.646;23.380;2023-06-19T13:24:52;94493.91;;;28.67;38.92
3968;BME280;9221;42.646;23.380;2023-06-19T13:27:17;94500.78;;;28.96;37.82
3968;BME280;9221;42.646;23.380;2023-06-19T13:29:43;94496.72;;;29.14;37.58
3968;BME280;9221;42.646;23.380;2023-06-19T13:32:08;94560.44;;;29.90;36.80
3968;BME280;9221;42.646;23.380;2023-06-19T13:34:34;94483.72;;;29.67;36.27
3968;BME280;9221;42.646;23.380;2023-06-19T13:36:59;94512.53;;;30.15;35.21
3968;BME280;9221;42.646;23.380;2023-06-19T13:39:24;94504.06;;;30.21;35.70
3968;BME280;9221;42.646;23.380;2023-06-19T13:41:52;94497.78;;;30.36;35.34
3968;BME280;9221;42.646;23.380;2023-06-19T13:44:17;94594.84;;;30.77;34.36